sensor_id;sensor_type;location;lat;lon;timestamp;pressure;altitude;pressure_sealevel;temperature;humidity
60479;BME280;46321;48.398;11.754;2022-09-20T00:00:48;96944.00;;;7.59;85.14
60479;BME280;46321;48.398;11.754;2022-09-20T00:03:14;96950.94;;;7.60;85.59
60479;BME280;46321;48.398;11.754;2022-09-20T00:05:42;96946.06;;;7.65;85.66
60479;BME280;46321;48.398;11.754;2022-09-20T00:08:11;96940.13;;;7.63;86.32
60479;BME280;46321;48.398;11.754;2022-09-20T00:10:37;96943.88;;;7.60;86.38
60479;BME280;46321;48.398;11.754;2022-09-20T00:13:04;96947.34;;;7.61;87.00
60479;BME280;46321;48.398;11.754;2022-09-20T00:15:30;96939.16;;;7.64;86.99
60479;BME280;46321;48.398;11.754;2022-09-20T00:17:56;96940.28;;;7.61;87.08
60479;BME280;46321;48.398;11.754;2022-09-20T00:20:21;96948.53;;;7.66;87.16
60479;BME280;46321;48.398;11.754;2022-09-20T00:22:47;96950.91;;;7.70;86.83
60479;BME280;46321;48.398;11.754;2022-09-20T00:25:16;96945.47;;;7.71;87.02
60479;BME280;46321;48.398;11.754;2022-09-20T00:27:41;96940.53;;;7.68;87.09
60479;BME280;46321;48.398;11.754;2022-09-20T00:30:08;96947.16;;;7.72;86.83
60479;BME280;46321;48.398;11.754;2022-09-20T00:32:33;96943.84;;;7.70;86.77
60479;BME280;46321;48.398;11.754;2022-09-20T00:34:58;96948.78;;;7.73;86.96
60479;BME280;46321;48.398;11.754;2022-09-20T00:37:38;96950.47;;;7.74;86.53
60479;BME280;46321;48.398;11.754;2022-09-20T00:40:12;96956.41;;;7.76;86.64
60479;BME280;46321;48.398;11.754;2022-09-20T00:42:37;96956.94;;;7.80;86.27
60479;BME280;46321;48.398;11.754;2022-09-20T00:45:28;96953.50;;;7.79;86.11
60479;BME280;46321;48.398;11.754;2022-09-20T00:48:08;96939.38;;;7.71;86.27
60479;BME280;46321;48.398;11.754;2022-09-20T00:50:41;96939.25;;;7.72;86.19
60479;BME280;46321;48.398;11.754;2022-09-20T00:55:42;96936.88;;;7.69;86.52
60479;BME280;46321;48.398;11.754;2022-09-20T00:58:10;96941.03;;;7.72;86.32
60479;BME280;46321;48.398;11.754;2022-09-20T01:00:36;96942.41;;;7.76;86.39
60479;BME280;46321;48.398;11.754;2022-09-20T01:03:05;96933.97;;;7.72;86.22
60479;BME280;46321;48.398;11.754;2022-09-20T01:05:33;96934.69;;;7.64;86.52
60479;BME280;46321;48.398;11.754;2022-09-20T01:07:58;96935.53;;;7.65;86.78
60479;BME280;46321;48.398;11.754;2022-09-20T01:10:23;96933.03;;;7.63;86.72
60479;BME280;46321;48.398;11.754;2022-09-20T01:12:50;96931.25;;;7.64;86.56
60479;BME280;46321;48.398;11.754;2022-09-20T01:15:16;96938.44;;;7.62;86.74
60479;BME280;46321;48.398;11.754;2022-09-20T01:17:47;96935.81;;;7.62;86.90
60479;BME280;46321;48.398;11.754;2022-09-20T01:20:30;96930.53;;;7.62;86.80
60479;BME280;46321;48.398;11.754;2022-09-20T01:25:56;96932.91;;;7.55;87.49
60479;BME280;46321;48.398;11.754;2022-09-20T01:28:26;96926.16;;;7.52;87.93
60479;BME280;46321;48.398;11.754;2022-09-20T01:31:12;96925.31;;;7.52;87.87
60479;BME280;46321;48.398;11.754;2022-09-20T01:33:45;96926.84;;;7.54;87.83
60479;BME280;46321;48.398;11.754;2022-09-20T01:36:17;96923.09;;;7.57;87.45
60479;BME280;46321;48.398;11.754;2022-09-20T01:39:00;96926.94;;;7.63;87.32
60479;BME280;46321;48.398;11.754;2022-09-20T01:41:36;96921.66;;;7.63;87.41
60479;BME280;46321;48.398;11.754;2022-09-20T01:47:04;96923.09;;;7.57;87.97
60479;BME280;46321;48.398;11.754;2022-09-20T01:49:54;96924.22;;;7.54;87.80
60479;BME280;46321;48.398;11.754;2022-09-20T01:52:53;96919.06;;;7.53;87.97
60479;BME280;46321;48.398;11.754;2022-09-20T02:04:30;96935.03;;;7.51;88.64
60479;BME280;46321;48.398;11.754;2022-09-20T02:13:03;96923.81;;;7.49;88.49
60479;BME280;46321;48.398;11.754;2022-09-20T02:18:37;96928.38;;;7.47;88.69
60479;BME280;46321;48.398;11.754;2022-09-20T02:21:36;96924.78;;;7.48;88.71
60479;BME280;46321;48.398;11.754;2022-09-20T02:41:50;96925.72;;;7.57;89.09
60479;BME280;46321;48.398;11.754;2022-09-20T02:43:57;96930.00;;;7.58;89.07
60479;BME280;46321;48.398;11.754;2022-09-20T02:46:59;96928.63;;;7.54;89.33
60479;BME280;46321;48.398;11.754;2022-09-20T02:49:57;96930.44;;;7.53;89.41
60479;BME280;46321;48.398;11.754;2022-09-20T02:58:25;96929.31;;;7.56;89.41
60479;BME280;46321;48.398;11.754;2022-09-20T03:09:34;96940.28;;;7.61;88.69
60479;BME280;46321;48.398;11.754;2022-09-20T03:12:09;96944.53;;;7.62;88.58
60479;BME280;46321;48.398;11.754;2022-09-20T03:14:45;96936.78;;;7.61;88.75
60479;BME280;46321;48.398;11.754;2022-09-20T03:17:30;96937.47;;;7.63;89.02
60479;BME280;46321;48.398;11.754;2022-09-20T03:23:12;96935.28;;;7.58;89.24
60479;BME280;46321;48.398;11.754;2022-09-20T03:28:43;96937.22;;;7.56;89.41
60479;BME280;46321;48.398;11.754;2022-09-20T03:31:31;96937.22;;;7.56;89.65
60479;BME280;46321;48.398;11.754;2022-09-20T03:34:11;96935.56;;;7.55;89.69
60479;BME280;46321;48.398;11.754;2022-09-20T03:36:56;96941.38;;;7.59;89.59
60479;BME280;46321;48.398;11.754;2022-09-20T03:42:30;96939.69;;;7.67;88.76
60479;BME280;46321;48.398;11.754;2022-09-20T03:53:27;96939.44;;;7.61;88.90
60479;BME280;46321;48.398;11.754;2022-09-20T04:04:33;96944.28;;;7.55;89.94
60479;BME280;46321;48.398;11.754;2022-09-20T04:10:19;96943.34;;;7.56;89.72
60479;BME280;46321;48.398;11.754;2022-09-20T04:13:14;96944.00;;;7.59;89.61
60479;BME280;46321;48.398;11.754;2022-09-20T04:16:12;96942.34;;;7.58;89.55
60479;BME280;46321;48.398;11.754;2022-09-20T04:18:50;96945.28;;;7.54;89.53
60479;BME280;46321;48.398;11.754;2022-09-20T04:26:31;96941.66;;;7.55;89.98
60479;BME280;46321;48.398;11.754;2022-09-20T04:32:00;96950.16;;;7.49;90.29
60479;BME280;46321;48.398;11.754;2022-09-20T04:34:35;96948.50;;;7.48;90.34
60479;BME280;46321;48.398;11.754;2022-09-20T04:37:32;96942.09;;;7.51;90.25
60479;BME280;46321;48.398;11.754;2022-09-20T04:40:12;96949.47;;;7.47;90.46
60479;BME280;46321;48.398;11.754;2022-09-20T04:43:15;96949.47;;;7.47;90.38
60479;BME280;46321;48.398;11.754;2022-09-20T04:57:32;96958.06;;;7.49;90.61
60479;BME280;46321;48.398;11.754;2022-09-20T05:00:08;96958.88;;;7.50;90.39
60479;BME280;46321;48.398;11.754;2022-09-20T05:13:56;96969.69;;;7.56;90.94
60479;BME280;46321;48.398;11.754;2022-09-20T05:16:59;96968.69;;;7.58;90.84
60479;BME280;46321;48.398;11.754;2022-09-20T05:22:43;96975.03;;;7.65;90.68
60479;BME280;46321;48.398;11.754;2022-09-20T05:30:42;96976.84;;;7.64;91.04
60479;BME280;46321;48.398;11.754;2022-09-20T05:33:25;96976.84;;;7.64;90.94
60479;BME280;46321;48.398;11.754;2022-09-20T05:36:18;96974.78;;;7.68;91.13
60479;BME280;46321;48.398;11.754;2022-09-20T05:39:04;96982.38;;;7.71;91.18
60479;BME280;46321;48.398;11.754;2022-09-20T05:41:46;96984.03;;;7.72;90.95
60479;BME280;46321;48.398;11.754;2022-09-20T05:49:37;96986.25;;;7.77;91.11
60479;BME280;46321;48.398;11.754;2022-09-20T05:57:35;96997.16;;;7.82;91.89
60479;BME280;46321;48.398;11.754;2022-09-20T06:00:06;96999.09;;;7.90;91.60
60479;BME280;46321;48.398;11.754;2022-09-20T06:05:26;96998.41;;;7.88;91.94
60479;BME280;46321;48.398;11.754;2022-09-20T06:08:16;97008.63;;;7.91;91.97
60479;BME280;46321;48.398;11.754;2022-09-20T06:11:22;97001.56;;;7.92;91.84
60479;BME280;46321;48.398;11.754;2022-09-20T06:14:12;97009.72;;;7.98;91.22
60479;BME280;46321;48.398;11.754;2022-09-20T06:16:50;97010.41;;;8.00;91.03
60479;BME280;46321;48.398;11.754;2022-09-20T06:21:53;97006.41;;;7.96;91.12
60479;BME280;46321;48.398;11.754;2022-09-20T06:24:32;97002.81;;;7.97;91.30
60479;BME280;46321;48.398;11.754;2022-09-20T06:27:03;97003.34;;;8.01;91.29
60479;BME280;46321;48.398;11.754;2022-09-20T06:29:35;97012.75;;;8.04;91.47
60479;BME280;46321;48.398;11.754;2022-09-20T06:32:03;97013.81;;;8.11;91.09
60479;BME280;46321;48.398;11.754;2022-09-20T06:34:29;97014.97;;;8.08;91.67
60479;BME280;46321;48.398;11.754;2022-09-20T06:37:03;97012.19;;;8.10;91.76
60479;BME280;46321;48.398;11.754;2022-09-20T06:41:01;97014.22;;;8.16;91.71
60479;BME280;46321;48.398;11.754;2022-09-20T06:43:13;97015.31;;;8.23;91.70
60479;BME280;46321;48.398;11.754;2022-09-20T06:45:40;97018.84;;;8.32;91.62
60479;BME280;46321;48.398;11.754;2022-09-20T06:48:06;97017.13;;;8.41;91.06
60479;BME280;46321;48.398;11.754;2022-09-20T06:50:33;97029.44;;;8.51;91.18
60479;BME280;46321;48.398;11.754;2022-09-20T06:53:00;97034.53;;;8.62;90.40
60479;BME280;46321;48.398;11.754;2022-09-20T06:55:29;97030.75;;;8.65;90.75
60479;BME280;46321;48.398;11.754;2022-09-20T06:57:56;97026.53;;;8.72;89.77
60479;BME280;46321;48.398;11.754;2022-09-20T07:00:22;97024.53;;;8.84;89.63
60479;BME280;46321;48.398;11.754;2022-09-20T07:02:47;97025.25;;;8.95;88.66
60479;BME280;46321;48.398;11.754;2022-09-20T07:05:14;97029.03;;;9.10;88.21
60479;BME280;46321;48.398;11.754;2022-09-20T07:07:40;97022.31;;;9.16;87.86
60479;BME280;46321;48.398;11.754;2022-09-20T07:10:05;97019.19;;;9.21;87.56
60479;BME280;46321;48.398;11.754;2022-09-20T07:12:31;97025.19;;;9.23;86.65
60479;BME280;46321;48.398;11.754;2022-09-20T07:14:58;97025.91;;;9.33;87.39
60479;BME280;46321;48.398;11.754;2022-09-20T07:17:23;97023.47;;;9.40;87.59
60479;BME280;46321;48.398;11.754;2022-09-20T07:19:49;97025.66;;;9.45;86.99
60479;BME280;46321;48.398;11.754;2022-09-20T07:22:15;97024.66;;;9.46;85.85
60479;BME280;46321;48.398;11.754;2022-09-20T07:24:40;97024.31;;;9.41;86.19
60479;BME280;46321;48.398;11.754;2022-09-20T07:27:06;97025.31;;;9.48;86.79
60479;BME280;46321;48.398;11.754;2022-09-20T07:29:31;97029.84;;;9.56;86.69
60479;BME280;46321;48.398;11.754;2022-09-20T07:31:59;97032.88;;;9.61;86.01
60479;BME280;46321;48.398;11.754;2022-09-20T07:34:24;97034.97;;;9.57;85.70
60479;BME280;46321;48.398;11.754;2022-09-20T07:36:51;97035.91;;;9.48;84.04
60479;BME280;46321;48.398;11.754;2022-09-20T07:39:17;97031.91;;;9.44;85.04
60479;BME280;46321;48.398;11.754;2022-09-20T07:41:42;97035.59;;;9.51;84.53
60479;BME280;46321;48.398;11.754;2022-09-20T07:44:13;97038.00;;;9.62;84.12
60479;BME280;46321;48.398;11.754;2022-09-20T07:46:54;97029.25;;;9.70;84.05
60479;BME280;46321;48.398;11.754;2022-09-20T07:49:21;97035.97;;;9.83;84.10
60479;BME280;46321;48.398;11.754;2022-09-20T07:51:47;97032.53;;;9.91;83.14
60479;BME280;46321;48.398;11.754;2022-09-20T07:54:13;97037.13;;;9.89;82.34
60479;BME280;46321;48.398;11.754;2022-09-20T07:56:39;97030.91;;;9.98;82.41
60479;BME280;46321;48.398;11.754;2022-09-20T07:59:04;97042.47;;;10.40;83.86
60479;BME280;46321;48.398;11.754;2022-09-20T08:01:30;97044.56;;;10.55;80.81
60479;BME280;46321;48.398;11.754;2022-09-20T08:03:56;97044.56;;;10.55;79.35
60479;BME280;46321;48.398;11.754;2022-09-20T08:06:21;97051.84;;;10.61;79.61
60479;BME280;46321;48.398;11.754;2022-09-20T08:08:47;97045.34;;;10.56;78.62
60479;BME280;46321;48.398;11.754;2022-09-20T08:11:15;97045.88;;;10.59;78.41
60479;BME280;46321;48.398;11.754;2022-09-20T08:13:49;97049.53;;;10.67;78.04
60479;BME280;46321;48.398;11.754;2022-09-20T08:16:16;97050.59;;;11.07;78.34
60479;BME280;46321;48.398;11.754;2022-09-20T08:18:50;97056.03;;;11.64;76.56
60479;BME280;46321;48.398;11.754;2022-09-20T08:21:16;97046.94;;;12.24;74.44
60479;BME280;46321;48.398;11.754;2022-09-20T08:23:44;97047.16;;;12.46;73.40
60479;BME280;46321;48.398;11.754;2022-09-20T08:26:13;97050.53;;;12.40;69.23
60479;BME280;46321;48.398;11.754;2022-09-20T08:28:40;97056.72;;;12.23;69.64
60479;BME280;46321;48.398;11.754;2022-09-20T08:31:11;97050.44;;;12.08;70.33
60479;BME280;46321;48.398;11.754;2022-09-20T08:33:40;97051.31;;;12.00;70.32
60479;BME280;46321;48.398;11.754;2022-09-20T08:36:07;97039.69;;;12.01;70.45
60479;BME280;46321;48.398;11.754;2022-09-20T08:38:35;97044.25;;;12.32;70.92
60479;BME280;46321;48.398;11.754;2022-09-20T08:41:10;97054.31;;;12.77;68.62
60479;BME280;46321;48.398;11.754;2022-09-20T08:43:52;97052.31;;;12.79;68.11
60479;BME280;46321;48.398;11.754;2022-09-20T08:46:21;97044.25;;;12.64;65.60
60479;BME280;46321;48.398;11.754;2022-09-20T08:48:49;97043.94;;;12.91;70.73
60479;BME280;46321;48.398;11.754;2022-09-20T08:51:15;97042.63;;;13.57;66.01
60479;BME280;46321;48.398;11.754;2022-09-20T08:53:46;97043.28;;;14.05;62.32
60479;BME280;46321;48.398;11.754;2022-09-20T08:56:13;97040.34;;;15.04;62.01
60479;BME280;46321;48.398;11.754;2022-09-20T08:58:38;97044.06;;;15.10;61.03
60479;BME280;46321;48.398;11.754;2022-09-20T09:01:04;97042.19;;;14.67;60.28
60479;BME280;46321;48.398;11.754;2022-09-20T09:03:31;97045.19;;;13.96;61.33
60479;BME280;46321;48.398;11.754;2022-09-20T09:05:56;97048.31;;;13.69;62.75
60479;BME280;46321;48.398;11.754;2022-09-20T09:08:36;97052.19;;;13.43;63.81
60479;BME280;46321;48.398;11.754;2022-09-20T09:11:06;97059.06;;;13.14;65.71
60479;BME280;46321;48.398;11.754;2022-09-20T09:13:41;97057.47;;;13.04;65.07
60479;BME280;46321;48.398;11.754;2022-09-20T09:16:15;97061.16;;;12.71;66.29
60479;BME280;46321;48.398;11.754;2022-09-20T09:18:43;97063.16;;;12.38;66.38
60479;BME280;46321;48.398;11.754;2022-09-20T09:21:25;97059.28;;;12.48;66.42
60479;BME280;46321;48.398;11.754;2022-09-20T09:23:56;97050.59;;;12.55;66.09
60479;BME280;46321;48.398;11.754;2022-09-20T09:26:27;97054.47;;;12.52;66.57
60479;BME280;46321;48.398;11.754;2022-09-20T09:29:16;97048.53;;;12.97;66.63
60479;BME280;46321;48.398;11.754;2022-09-20T09:31:42;97043.91;;;13.61;63.96
60479;BME280;46321;48.398;11.754;2022-09-20T09:34:29;97036.81;;;14.82;62.62
60479;BME280;46321;48.398;11.754;2022-09-20T09:36:56;97033.22;;;15.62;57.11
60479;BME280;46321;48.398;11.754;2022-09-20T09:39:28;97029.50;;;16.77;55.03
60479;BME280;46321;48.398;11.754;2022-09-20T09:41:55;97021.44;;;18.72;49.50
60479;BME280;46321;48.398;11.754;2022-09-20T09:44:24;97027.66;;;18.98;48.86
60479;BME280;46321;48.398;11.754;2022-09-20T09:46:50;97008.97;;;20.63;45.06
60479;BME280;46321;48.398;11.754;2022-09-20T09:49:19;97022.91;;;21.81;41.21
60479;BME280;46321;48.398;11.754;2022-09-20T09:54:20;97012.34;;;20.58;40.66
60479;BME280;46321;48.398;11.754;2022-09-20T09:59:50;97013.66;;;18.96;42.33
60479;BME280;46321;48.398;11.754;2022-09-20T10:05:17;96989.69;;;23.51;36.53
60479;BME280;46321;48.398;11.754;2022-09-20T10:08:02;96996.25;;;24.96;32.24
60479;BME280;46321;48.398;11.754;2022-09-20T10:14:02;96988.25;;;23.83;30.43
60479;BME280;46321;48.398;11.754;2022-09-20T10:19:47;96979.94;;;25.89;29.96
60479;BME280;46321;48.398;11.754;2022-09-20T10:33:27;96969.28;;;27.98;24.35
60479;BME280;46321;48.398;11.754;2022-09-20T10:47:17;96975.56;;;29.06;23.94
60479;BME280;46321;48.398;11.754;2022-09-20T10:55:14;96979.84;;;26.38;26.25
60479;BME280;46321;48.398;11.754;2022-09-20T10:58:34;96981.91;;;28.40;24.50
60479;BME280;46321;48.398;11.754;2022-09-20T11:03:52;96981.00;;;29.70;23.21
60479;BME280;46321;48.398;11.754;2022-09-20T11:08:59;96984.56;;;24.34;27.71
60479;BME280;46321;48.398;11.754;2022-09-20T11:11:34;96988.34;;;23.02;29.14
60479;BME280;46321;48.398;11.754;2022-09-20T11:14:30;96991.22;;;22.25;29.85
60479;BME280;46321;48.398;11.754;2022-09-20T11:17:00;97001.94;;;21.23;31.91
60479;BME280;46321;48.398;11.754;2022-09-20T11:22:29;96999.53;;;20.03;33.39
60479;BME280;46321;48.398;11.754;2022-09-20T11:25:01;97002.13;;;19.73;33.52
60479;BME280;46321;48.398;11.754;2022-09-20T11:27:38;97005.88;;;19.20;35.74
60479;BME280;46321;48.398;11.754;2022-09-20T11:30:19;96999.31;;;19.09;35.95
60479;BME280;46321;48.398;11.754;2022-09-20T11:35:38;97004.78;;;18.96;36.84
60479;BME280;46321;48.398;11.754;2022-09-20T11:38:27;96995.50;;;18.66;37.72
60479;BME280;46321;48.398;11.754;2022-09-20T11:41:22;97005.16;;;18.67;38.75
60479;BME280;46321;48.398;11.754;2022-09-20T11:43:50;96997.75;;;18.23;38.16
60479;BME280;46321;48.398;11.754;2022-09-20T11:46:24;97004.31;;;18.34;39.16
60479;BME280;46321;48.398;11.754;2022-09-20T11:49:00;97008.28;;;18.18;39.80
60479;BME280;46321;48.398;11.754;2022-09-20T11:54:44;96999.00;;;18.14;38.79
60479;BME280;46321;48.398;11.754;2022-09-20T11:57:19;96997.84;;;17.82;39.64
60479;BME280;46321;48.398;11.754;2022-09-20T11:59:51;96990.44;;;17.78;40.46
60479;BME280;46321;48.398;11.754;2022-09-20T12:02:27;96979.66;;;18.05;40.92
60479;BME280;46321;48.398;11.754;2022-09-20T12:04:57;96980.47;;;18.05;40.05
60479;BME280;46321;48.398;11.754;2022-09-20T12:07:33;96979.88;;;18.03;39.66
60479;BME280;46321;48.398;11.754;2022-09-20T12:12:38;96985.28;;;17.83;38.96
60479;BME280;46321;48.398;11.754;2022-09-20T12:15:22;96978.28;;;17.82;39.80
60479;BME280;46321;48.398;11.754;2022-09-20T12:28:37;96962.69;;;17.58;40.35
60479;BME280;46321;48.398;11.754;2022-09-20T12:39:26;96961.66;;;17.12;42.74
60479;BME280;46321;48.398;11.754;2022-09-20T12:47:19;96957.09;;;16.65;41.44
60479;BME280;46321;48.398;11.754;2022-09-20T12:49:48;96959.78;;;16.71;42.19
60479;BME280;46321;48.398;11.754;2022-09-20T12:58:15;96963.66;;;16.48;41.19
60479;BME280;46321;48.398;11.754;2022-09-20T13:05:47;96959.16;;;16.69;43.32
60479;BME280;46321;48.398;11.754;2022-09-20T13:08:19;96974.06;;;16.30;42.39
60479;BME280;46321;48.398;11.754;2022-09-20T13:10:49;96968.63;;;16.09;42.98
60479;BME280;46321;48.398;11.754;2022-09-20T13:13:27;96967.03;;;15.79;44.33
60479;BME280;46321;48.398;11.754;2022-09-20T13:15:56;96978.22;;;15.61;45.41
60479;BME280;46321;48.398;11.754;2022-09-20T13:18:23;96972.28;;;15.66;46.05
60479;BME280;46321;48.398;11.754;2022-09-20T13:20:50;96973.59;;;15.77;45.60
60479;BME280;46321;48.398;11.754;2022-09-20T13:23:20;96976.03;;;15.72;45.43
60479;BME280;46321;48.398;11.754;2022-09-20T13:25:48;96973.56;;;15.41;45.29
60479;BME280;46321;48.398;11.754;2022-09-20T13:28:33;96986.53;;;15.44;46.09
60479;BME280;46321;48.398;11.754;2022-09-20T13:31:21;96995.53;;;14.93;47.30
60479;BME280;46321;48.398;11.754;2022-09-20T13:33:48;96987.28;;;14.87;48.74
60479;BME280;46321;48.398;11.754;2022-09-20T13:36:13;97002.13;;;14.23;50.11
60479;BME280;46321;48.398;11.754;2022-09-20T13:38:40;97000.78;;;14.12;51.83
60479;BME280;46321;48.398;11.754;2022-09-20T13:41:07;97009.13;;;13.93;53.04
60479;BME280;46321;48.398;11.754;2022-09-20T13:43:40;97009.88;;;13.87;57.01
60479;BME280;46321;48.398;11.754;2022-09-20T13:46:10;97014.47;;;13.63;58.84
60479;BME280;46321;48.398;11.754;2022-09-20T13:48:37;97007.91;;;13.50;58.79
60479;BME280;46321;48.398;11.754;2022-09-20T13:51:02;97014.50;;;13.39;60.41
60479;BME280;46321;48.398;11.754;2022-09-20T13:53:28;97010.69;;;13.19;60.66
60479;BME280;46321;48.398;11.754;2022-09-20T13:55:57;97015.88;;;13.12;61.48
60479;BME280;46321;48.398;11.754;2022-09-20T14:00:55;97016.31;;;13.00;63.50
60479;BME280;46321;48.398;11.754;2022-09-20T14:03:22;97013.00;;;12.98;63.58
60479;BME280;46321;48.398;11.754;2022-09-20T14:06:01;97018.31;;;12.98;64.11
60479;BME280;46321;48.398;11.754;2022-09-20T14:08:34;97010.00;;;13.01;64.99
60479;BME280;46321;48.398;11.754;2022-09-20T14:11:21;97015.34;;;12.93;64.04
60479;BME280;46321;48.398;11.754;2022-09-20T14:13:51;97011.69;;;12.94;63.24
60479;BME280;46321;48.398;11.754;2022-09-20T14:16:17;97004.84;;;13.00;62.60
60479;BME280;46321;48.398;11.754;2022-09-20T14:18:45;97013.31;;;13.03;63.30
60479;BME280;46321;48.398;11.754;2022-09-20T14:21:13;97007.78;;;13.05;62.93
60479;BME280;46321;48.398;11.754;2022-09-20T14:23:53;97012.28;;;13.04;64.59
60479;BME280;46321;48.398;11.754;2022-09-20T14:26:25;97009.75;;;13.11;61.63
60479;BME280;46321;48.398;11.754;2022-09-20T14:28:51;97008.84;;;13.19;62.47
60479;BME280;46321;48.398;11.754;2022-09-20T14:33:47;97006.66;;;13.23;61.31
60479;BME280;46321;48.398;11.754;2022-09-20T14:36:18;97008.38;;;13.15;62.41
60479;BME280;46321;48.398;11.754;2022-09-20T14:38:46;97002.91;;;13.17;60.55
60479;BME280;46321;48.398;11.754;2022-09-20T14:41:13;97010.88;;;13.17;62.07
60479;BME280;46321;48.398;11.754;2022-09-20T14:43:56;97010.22;;;13.15;61.04
60479;BME280;46321;48.398;11.754;2022-09-20T14:46:28;97015.34;;;13.16;60.83
60479;BME280;46321;48.398;11.754;2022-09-20T14:49:19;97015.16;;;13.18;61.97
60479;BME280;46321;48.398;11.754;2022-09-20T14:51:45;97016.19;;;13.17;61.98
60479;BME280;46321;48.398;11.754;2022-09-20T14:56:39;97033.59;;;12.96;61.50
60479;BME280;46321;48.398;11.754;2022-09-20T15:01:52;97037.25;;;12.40;63.64
60479;BME280;46321;48.398;11.754;2022-09-20T15:04:21;97024.53;;;12.27;64.29
60479;BME280;46321;48.398;11.754;2022-09-20T15:06:48;97019.28;;;12.18;67.54
60479;BME280;46321;48.398;11.754;2022-09-20T15:09:14;97015.59;;;12.19;65.70
60479;BME280;46321;48.398;11.754;2022-09-20T15:11:39;97027.06;;;12.20;65.79
60479;BME280;46321;48.398;11.754;2022-09-20T15:14:05;97029.38;;;12.23;66.47
60479;BME280;46321;48.398;11.754;2022-09-20T15:16:31;97024.06;;;12.23;65.96
60479;BME280;46321;48.398;11.754;2022-09-20T15:18:58;97025.06;;;12.22;66.60
60479;BME280;46321;48.398;11.754;2022-09-20T15:21:23;97023.72;;;12.26;66.10
60479;BME280;46321;48.398;11.754;2022-09-20T15:23:48;97024.34;;;12.28;67.00
60479;BME280;46321;48.398;11.754;2022-09-20T15:26:14;97027.53;;;12.23;66.73
60479;BME280;46321;48.398;11.754;2022-09-20T15:28:40;97032.69;;;12.17;68.04
60479;BME280;46321;48.398;11.754;2022-09-20T15:31:06;97035.19;;;12.10;69.10
60479;BME280;46321;48.398;11.754;2022-09-20T15:33:31;97034.06;;;12.04;69.54
60479;BME280;46321;48.398;11.754;2022-09-20T15:35:58;97052.31;;;11.90;70.23
60479;BME280;46321;48.398;11.754;2022-09-20T15:38:23;97060.13;;;11.84;69.70
60479;BME280;46321;48.398;11.754;2022-09-20T15:40:51;97060.66;;;11.54;67.73
60479;BME280;46321;48.398;11.754;2022-09-20T15:43:19;97074.94;;;11.28;68.52
60479;BME280;46321;48.398;11.754;2022-09-20T15:45:53;97080.91;;;11.30;69.15
60479;BME280;46321;48.398;11.754;2022-09-20T15:48:22;97086.38;;;11.20;70.07
60479;BME280;46321;48.398;11.754;2022-09-20T15:51:07;97082.88;;;11.11;70.22
60479;BME280;46321;48.398;11.754;2022-09-20T15:53:37;97077.06;;;10.91;70.13
60479;BME280;46321;48.398;11.754;2022-09-20T15:56:13;97069.25;;;10.72;72.00
60479;BME280;46321;48.398;11.754;2022-09-20T15:58:43;97066.66;;;10.46;73.13
60479;BME280;46321;48.398;11.754;2022-09-20T16:01:10;97056.00;;;10.29;72.66
60479;BME280;46321;48.398;11.754;2022-09-20T16:03:35;97065.28;;;10.33;73.72
60479;BME280;46321;48.398;11.754;2022-09-20T16:06:03;97055.03;;;10.30;74.46
60479;BME280;46321;48.398;11.754;2022-09-20T16:08:36;97057.50;;;10.31;73.28
60479;BME280;46321;48.398;11.754;2022-09-20T16:11:04;97050.03;;;10.27;73.04
60479;BME280;46321;48.398;11.754;2022-09-20T16:13:29;97052.00;;;10.25;75.59
60479;BME280;46321;48.398;11.754;2022-09-20T16:15:56;97044.25;;;10.23;77.54
60479;BME280;46321;48.398;11.754;2022-09-20T16:18:22;97052.31;;;10.22;77.65
60479;BME280;46321;48.398;11.754;2022-09-20T16:21:10;97058.78;;;10.19;79.54
60479;BME280;46321;48.398;11.754;2022-09-20T16:23:40;97060.41;;;10.12;80.17
60479;BME280;46321;48.398;11.754;2022-09-20T16:26:07;97059.56;;;10.11;80.02
60479;BME280;46321;48.398;11.754;2022-09-20T16:28:40;97059.94;;;10.16;80.31
60479;BME280;46321;48.398;11.754;2022-09-20T16:33:52;97064.56;;;10.23;80.18
60479;BME280;46321;48.398;11.754;2022-09-20T16:36:17;97060.97;;;10.24;80.30
60479;BME280;46321;48.398;11.754;2022-09-20T16:38:43;97070.38;;;10.26;80.60
60479;BME280;46321;48.398;11.754;2022-09-20T16:41:09;97065.91;;;10.27;81.26
60479;BME280;46321;48.398;11.754;2022-09-20T16:43:34;97074.34;;;10.30;81.34
60479;BME280;46321;48.398;11.754;2022-09-20T16:46:01;97080.34;;;10.33;81.65
60479;BME280;46321;48.398;11.754;2022-09-20T16:48:26;97076.03;;;10.31;81.32
60479;BME280;46321;48.398;11.754;2022-09-20T16:50:54;97086.91;;;10.28;80.20
60479;BME280;46321;48.398;11.754;2022-09-20T16:53:19;97085.56;;;10.24;79.72
60479;BME280;46321;48.398;11.754;2022-09-20T16:55:45;97085.28;;;10.27;79.20
60479;BME280;46321;48.398;11.754;2022-09-20T16:58:10;97090.56;;;10.27;78.87
60479;BME280;46321;48.398;11.754;2022-09-20T17:00:35;97103.03;;;10.08;79.15
60479;BME280;46321;48.398;11.754;2022-09-20T17:03:01;97097.72;;;10.08;78.34
60479;BME280;46321;48.398;11.754;2022-09-20T17:05:26;97091.06;;;9.96;77.71
60479;BME280;46321;48.398;11.754;2022-09-20T17:07:53;97096.66;;;9.93;77.97
60479;BME280;46321;48.398;11.754;2022-09-20T17:10:18;97093.47;;;9.81;79.05
60479;BME280;46321;48.398;11.754;2022-09-20T17:12:44;97100.03;;;9.77;78.29
60479;BME280;46321;48.398;11.754;2022-09-20T17:15:11;97105.94;;;9.70;79.38
60479;BME280;46321;48.398;11.754;2022-09-20T17:17:38;97107.22;;;9.66;79.85
60479;BME280;46321;48.398;11.754;2022-09-20T17:20:04;97110.88;;;9.65;79.63
60479;BME280;46321;48.398;11.754;2022-09-20T17:22:31;97113.66;;;9.64;79.59
60479;BME280;46321;48.398;11.754;2022-09-20T17:24:57;97121.22;;;9.58;79.57
60479;BME280;46321;48.398;11.754;2022-09-20T17:27:22;97126.81;;;9.55;79.37
60479;BME280;46321;48.398;11.754;2022-09-20T17:29:48;97127.25;;;9.50;80.78
60479;BME280;46321;48.398;11.754;2022-09-20T17:32:13;97124.63;;;9.50;80.97